Friday, November 24, 2017, 5:29 AM GMT
Back to Local

CWAF, Ile Rouge Meteorological Aeronautical Presentation System

Location: , , Canada Lat: 48.083
Local Time: 5:29 AM GMT ( 5:29 GMT) Lon: -69.55
Time Zone: GMT Elev: 16 ft

Show me the last for .
Show Coded

Time T Td Feel RH Dir Speed Gust Alt SLP Vis Weather Sky Remarks
2017-11-24 05:00 31 27 15 82 200° 31 37 - - 0 Peak wind: 40 mph (35 kts) from 200° at 28 min
2017-11-24 04:00 30 26 13 84 200° 31 37 - - 0 Peak wind: 39 mph (34 kts) from 200° at 16 min
2017-11-24 03:00 29 25 13 83 200° 33 - - - 0 Peak wind: 41 mph (36 kts) from 200° at 02 min
2017-11-24 02:00 29 24 12 81 200° 36 - - - 0 Peak wind: 42 mph (37 kts) from 200° at 23 min
2017-11-24 01:00 30 24 13 78 210° 36 - - - 0 Peak wind: 42 mph (37 kts) from 220° at 44 min
2017-11-24 00:00 30 26 15 82 210° 35 - - - 0 Peak wind: 39 mph (34 kts) from 210° at 54 min
2017-11-23 23:00 29 24 12 80 190° 32 39 - - 0 Peak wind: 39 mph (34 kts) from 190° at 44 min
2017-11-23 22:00 30 24 14 79 200° 25 32 - - 0 Peak wind: 32 mph (28 kts) from 190° at 54 min
2017-11-23 21:00 29 17 19 58 200° 13 - - - 0 None
2017-11-23 20:00 29 16 21 56 250° 9 - - - 0 None
2017-11-23 19:00 29 16 18 58 280° 13 - - - 0 Peak wind: 19 mph (17 kts) from 300° at 05 min
2017-11-23 18:00 28 19 16 67 300° 16 - - - 0 Peak wind: 23 mph (20 kts) from 280° at 15 min
2017-11-23 17:00 28 19 15 67 290° 18 - - - 0 Peak wind: 24 mph (21 kts) from 270° at 06 min
2017-11-23 16:00 27 17 14 64 280° 18 - - - 0 Peak wind: 25 mph (22 kts) from 290° at 27 min
2017-11-23 15:00 25 19 12 75 290° 16 - - - 0 Peak wind: 29 mph (26 kts) from 290° at 28 min
2017-11-23 14:00 25 17 8 71 290° 23 31 - - 0 Peak wind: 31 mph (27 kts) from 290° at 58 min
2017-11-23 13:00 24 16 8 72 280° 18 24 - - 0 Peak wind: 24 mph (21 kts) from 280° at 57 min
2017-11-23 12:00 25 17 9 71 280° 17 25 - - 0 Peak wind: 33 mph (29 kts) from 300° at 01 min
2017-11-23 11:00 24 15 6 67 310° 26 33 - - 0 Peak wind: 33 mph (29 kts) from 310° at 57 min
2017-11-23 10:00 24 17 10 73 310° 20 - - - 0 Peak wind: 25 mph (22 kts) from 310° at 22 min
2017-11-23 09:00 25 17 8 71 320° 21 30 - - 0 Peak wind: 33 mph (29 kts) from 310° at 25 min
2017-11-23 08:00 25 19 9 77 320° 18 24 - - 0 Peak wind: 25 mph (22 kts) from 310° at 31 min
2017-11-23 07:00 25 19 11 77 320° 10 17 - - 0 Peak wind: 29 mph (26 kts) from 310° at 06 min
2017-11-23 06:00 26 18 9 73 310° 23 30 - - 0 Peak wind: 34 mph (30 kts) from 320° at 47 min

Support USWX by starting your Amazon purchase here.